createdAt,value
2022-11-17T00:00:21.567Z,100.00
2022-11-17T00:02:24.465Z,100.00
2022-11-17T00:04:29.925Z,100.00
2022-11-17T00:06:33.985Z,100.00
2022-11-17T00:08:36.750Z,100.00
2022-11-17T00:10:39.439Z,100.00
2022-11-17T00:12:59.679Z,100.00
2022-11-17T00:15:02.399Z,100.00
2022-11-17T00:17:07.135Z,100.00
2022-11-17T00:19:27.389Z,100.00
2022-11-17T00:21:29.936Z,100.00
2022-11-17T00:23:48.133Z,100.00
2022-11-17T00:25:51.024Z,100.00
2022-11-17T00:27:53.700Z,100.00
2022-11-17T00:29:56.931Z,100.00
2022-11-17T00:32:17.539Z,100.00
2022-11-17T00:34:21.036Z,100.00
2022-11-17T00:36:26.186Z,100.00
2022-11-17T00:38:28.842Z,100.00
2022-11-17T00:40:32.953Z,100.00
2022-11-17T00:42:35.740Z,100.00
2022-11-17T00:44:38.507Z,100.00
2022-11-17T00:46:41.703Z,100.00
2022-11-17T00:48:44.340Z,100.00
2022-11-17T00:50:47.075Z,100.00
2022-11-17T00:52:49.741Z,100.00
2022-11-17T00:54:52.425Z,100.00
2022-11-17T00:56:56.774Z,100.00
2022-11-17T00:58:59.601Z,100.00
2022-11-17T01:01:02.896Z,100.00
2022-11-17T01:03:05.673Z,100.00
2022-11-17T01:05:09.132Z,100.00
2022-11-17T01:07:11.915Z,100.00
2022-11-17T01:09:16.530Z,100.00
2022-11-17T01:11:20.363Z,100.00
2022-11-17T01:13:24.525Z,100.00
2022-11-17T01:15:27.259Z,100.00
2022-11-17T01:17:29.985Z,100.00
2022-11-17T01:19:32.696Z,100.00
2022-11-17T01:21:35.447Z,100.00
2022-11-17T01:23:39.662Z,100.00
2022-11-17T01:25:42.290Z,100.00
2022-11-17T01:27:44.988Z,100.00
2022-11-17T01:29:49.153Z,100.00
2022-11-17T01:31:52.929Z,100.00
2022-11-17T01:33:56.211Z,100.00
2022-11-17T01:36:02.859Z,100.00
2022-11-17T01:38:05.570Z,100.00
2022-11-17T01:40:11.022Z,100.00
2022-11-17T01:42:15.938Z,100.00
2022-11-17T01:44:58.572Z,100.00
2022-11-17T01:47:01.446Z,100.00
2022-11-17T01:49:12.836Z,100.00
2022-11-17T01:51:17.472Z,100.00
2022-11-17T01:53:22.463Z,100.00
2022-11-17T01:55:29.231Z,100.00
2022-11-17T01:57:34.160Z,100.00
2022-11-17T01:59:42.168Z,100.00
2022-11-17T02:01:56.802Z,100.00
2022-11-17T02:03:59.800Z,100.00
2022-11-17T02:06:07.358Z,100.00
2022-11-17T02:08:12.393Z,100.00
2022-11-17T02:10:15.085Z,100.00
2022-11-17T02:12:18.140Z,100.00
2022-11-17T02:14:20.818Z,100.00
2022-11-17T02:16:23.491Z,100.00
2022-11-17T02:18:27.773Z,100.00
2022-11-17T02:20:42.651Z,100.00
2022-11-17T02:23:17.703Z,100.00
2022-11-17T02:25:59.215Z,100.00
2022-11-17T02:28:11.930Z,100.00
2022-11-17T02:30:16.512Z,100.00
2022-11-17T02:32:22.400Z,100.00
2022-11-17T02:34:35.015Z,100.00
2022-11-17T02:36:44.261Z,100.00
2022-11-17T02:38:54.365Z,100.00
2022-11-17T02:41:09.600Z,100.00
2022-11-17T02:43:35.452Z,100.00
2022-11-17T02:45:43.181Z,100.00
2022-11-17T02:47:48.091Z,100.00
2022-11-17T02:49:56.327Z,100.00
2022-11-17T02:52:00.967Z,100.00
2022-11-17T02:54:04.017Z,100.00
2022-11-17T02:56:08.219Z,100.00
2022-11-17T02:58:13.100Z,100.00
2022-11-17T03:00:18.631Z,100.00
2022-11-17T03:02:34.873Z,100.00
2022-11-17T03:04:46.905Z,100.00
2022-11-17T03:07:01.196Z,100.00
2022-11-17T03:09:11.688Z,100.00
2022-11-17T03:11:14.857Z,100.00
2022-11-17T03:13:24.860Z,100.00
2022-11-17T03:15:35.715Z,100.00
2022-11-17T03:17:47.815Z,100.00
2022-11-17T03:19:58.955Z,100.00
2022-11-17T03:22:08.893Z,100.00
2022-11-17T03:24:18.145Z,100.00
2022-11-17T03:26:28.146Z,100.00
2022-11-17T03:28:33.731Z,100.00
2022-11-17T03:30:41.235Z,100.00
2022-11-17T03:32:50.589Z,100.00
2022-11-17T03:34:58.426Z,100.00
2022-11-17T03:37:04.604Z,100.00
2022-11-17T03:39:12.731Z,100.00
2022-11-17T03:41:18.043Z,100.00
2022-11-17T03:43:22.367Z,100.00
2022-11-17T03:45:28.941Z,100.00
2022-11-17T03:47:33.574Z,100.00
2022-11-17T03:49:41.041Z,100.00
2022-11-17T03:51:43.795Z,100.00
2022-11-17T03:53:48.245Z,100.00
2022-11-17T03:55:57.119Z,100.00
2022-11-17T03:58:05.314Z,100.00
2022-11-17T04:00:11.130Z,100.00
2022-11-17T04:02:19.174Z,100.00
2022-11-17T04:04:23.484Z,100.00
2022-11-17T04:06:26.223Z,100.00
2022-11-17T04:08:30.598Z,100.00
2022-11-17T04:10:53.289Z,100.00
2022-11-17T04:13:13.675Z,100.00
2022-11-17T04:15:34.122Z,100.00
2022-11-17T04:17:38.168Z,100.00
2022-11-17T04:19:40.806Z,100.00
2022-11-17T04:21:43.546Z,100.00
2022-11-17T04:23:46.179Z,100.00
2022-11-17T04:26:08.100Z,100.00
2022-11-17T04:28:28.584Z,100.00
2022-11-17T04:30:31.211Z,100.00
2022-11-17T04:32:33.910Z,100.00
2022-11-17T04:34:42.575Z,100.00
2022-11-17T04:36:45.250Z,100.00
2022-11-17T04:38:49.382Z,100.00
2022-11-17T04:41:06.027Z,100.00
2022-11-17T04:43:08.662Z,100.00
2022-11-17T04:45:11.390Z,100.00
2022-11-17T04:47:15.814Z,100.00
2022-11-17T04:49:20.393Z,100.00
2022-11-17T04:51:25.064Z,100.00
2022-11-17T04:53:27.718Z,100.00
2022-11-17T04:55:30.373Z,100.00
2022-11-17T04:57:33.109Z,100.00
2022-11-17T04:59:36.666Z,100.00
2022-11-17T05:01:39.827Z,100.00
2022-11-17T05:03:44.303Z,100.00
2022-11-17T05:05:47.360Z,100.00
2022-11-17T05:07:51.440Z,100.00
2022-11-17T05:09:54.086Z,100.00
2022-11-17T05:12:14.535Z,100.00
2022-11-17T05:14:19.772Z,100.00
2022-11-17T05:16:40.626Z,100.00
2022-11-17T05:18:44.683Z,100.00
2022-11-17T05:20:47.425Z,100.00
2022-11-17T05:23:08.708Z,100.00
2022-11-17T05:25:11.828Z,100.00
2022-11-17T05:27:14.532Z,100.00
2022-11-17T05:29:19.517Z,100.00
2022-11-17T05:31:22.496Z,100.00
2022-11-17T05:33:25.162Z,100.00
2022-11-17T05:35:27.862Z,100.00
2022-11-17T05:37:30.681Z,100.00
2022-11-17T05:39:34.718Z,100.00
2022-11-17T05:41:38.215Z,100.00
2022-11-17T05:43:41.127Z,100.00
2022-11-17T05:45:45.818Z,100.00
2022-11-17T05:47:48.619Z,100.00
2022-11-17T05:49:51.364Z,100.00
2022-11-17T05:51:56.734Z,100.00
2022-11-17T05:53:59.562Z,100.00
2022-11-17T05:56:15.688Z,100.00
2022-11-17T05:58:23.504Z,100.00
2022-11-17T06:00:26.357Z,100.00
2022-11-17T06:02:34.785Z,100.00
2022-11-17T06:04:37.891Z,100.00
2022-11-17T06:06:40.695Z,100.00
2022-11-17T06:08:43.602Z,100.00
2022-11-17T06:10:46.472Z,100.00
2022-11-17T06:12:50.546Z,100.00
2022-11-17T06:14:53.337Z,100.00
2022-11-17T06:17:01.667Z,100.00
2022-11-17T06:19:07.898Z,100.00
2022-11-17T06:21:13.956Z,100.00
2022-11-17T06:23:19.473Z,100.00
2022-11-17T06:25:22.289Z,100.00
2022-11-17T06:27:26.645Z,100.00
2022-11-17T06:29:31.476Z,100.00
2022-11-17T06:31:34.201Z,100.00
2022-11-17T06:33:38.659Z,100.00
2022-11-17T06:35:43.432Z,100.00
2022-11-17T06:37:46.180Z,100.00
2022-11-17T06:39:48.899Z,100.00
2022-11-17T06:41:51.546Z,100.00
2022-11-17T06:43:54.207Z,100.00
2022-11-17T06:45:58.410Z,100.00
2022-11-17T06:48:01.483Z,100.00
2022-11-17T06:50:04.340Z,100.00
2022-11-17T06:52:07.009Z,100.00
2022-11-17T06:54:10.503Z,100.00
2022-11-17T06:56:13.644Z,100.00
2022-11-17T06:58:16.327Z,100.00
2022-11-17T07:00:20.078Z,100.00
2022-11-17T07:02:24.259Z,100.00
2022-11-17T07:04:27.059Z,100.00
2022-11-17T07:06:29.900Z,100.00
2022-11-17T07:08:34.190Z,100.00
2022-11-17T07:10:38.008Z,100.00
2022-11-17T07:12:40.792Z,100.00
2022-11-17T07:14:43.600Z,100.00
2022-11-17T07:16:46.471Z,100.00
2022-11-17T07:18:50.631Z,100.00
2022-11-17T07:20:53.659Z,100.00
2022-11-17T07:23:00.012Z,100.00
2022-11-17T07:25:02.856Z,100.00
2022-11-17T07:27:06.528Z,100.00
2022-11-17T07:29:09.290Z,100.00
2022-11-17T07:31:12.030Z,100.00
2022-11-17T07:33:15.428Z,100.00
2022-11-17T07:35:19.687Z,100.00
2022-11-17T07:37:22.390Z,100.00
2022-11-17T07:39:25.132Z,100.00
2022-11-17T07:41:27.957Z,100.00
2022-11-17T07:43:31.377Z,100.00
2022-11-17T07:45:34.125Z,100.00
2022-11-17T07:47:36.947Z,100.00
2022-11-17T07:49:39.653Z,100.00
2022-11-17T07:51:43.711Z,100.00
2022-11-17T07:53:46.469Z,100.00
2022-11-17T07:55:49.255Z,100.00
2022-11-17T07:57:56.119Z,100.00
2022-11-17T07:59:58.852Z,100.00
2022-11-17T08:02:01.647Z,100.00
2022-11-17T08:04:04.662Z,100.00
2022-11-17T08:06:09.369Z,100.00
2022-11-17T08:08:14.197Z,100.00
2022-11-17T08:10:17.214Z,100.00
2022-11-17T08:12:20.054Z,100.00
2022-11-17T08:14:22.844Z,100.00
2022-11-17T08:16:30.656Z,100.00
2022-11-17T08:18:34.281Z,100.00
2022-11-17T08:20:37.590Z,100.00
2022-11-17T08:22:40.381Z,100.00
2022-11-17T08:24:44.555Z,100.00
2022-11-17T08:26:47.421Z,100.00
2022-11-17T08:28:56.710Z,100.00
2022-11-17T08:31:02.209Z,100.00
2022-11-17T08:33:05.033Z,100.00
2022-11-17T08:35:08.200Z,100.00
2022-11-17T08:37:11.010Z,100.00
2022-11-17T08:39:13.842Z,100.00
2022-11-17T08:41:18.881Z,100.00
2022-11-17T08:43:21.678Z,100.00
2022-11-17T08:45:24.398Z,100.00
2022-11-17T08:47:27.359Z,100.00
2022-11-17T08:49:30.099Z,100.00
2022-11-17T08:51:33.237Z,100.00
2022-11-17T08:53:36.514Z,100.00
2022-11-17T08:55:41.296Z,100.00
2022-11-17T08:57:46.007Z,100.00
2022-11-17T08:59:49.138Z,100.00
2022-11-17T09:01:51.866Z,100.00
2022-11-17T09:03:54.626Z,100.00
2022-11-17T09:05:57.361Z,100.00
2022-11-17T09:08:22.337Z,100.00
2022-11-17T09:10:23.105Z,100.00
2022-11-17T09:12:25.874Z,98.87
2022-11-17T09:14:31.483Z,99.44
2022-11-17T09:16:34.320Z,99.31
2022-11-17T09:18:38.414Z,98.14
2022-11-17T09:20:45.427Z,98.40
2022-11-17T09:22:48.831Z,98.80
2022-11-17T09:24:51.468Z,97.55
2022-11-17T09:26:54.946Z,97.80
2022-11-17T09:29:01.431Z,96.99
2022-11-17T09:31:09.671Z,97.25
2022-11-17T09:33:12.461Z,97.71
2022-11-17T09:35:15.357Z,96.73
2022-11-17T09:37:18.370Z,96.21
2022-11-17T09:39:21.382Z,95.79
2022-11-17T09:41:27.962Z,93.66
2022-11-17T09:43:37.269Z,93.56
2022-11-17T09:45:40.910Z,92.65
2022-11-17T09:47:49.736Z,92.72
2022-11-17T09:49:59.404Z,93.28
2022-11-17T09:52:10.506Z,93.47
2022-11-17T09:54:21.585Z,93.02
2022-11-17T09:56:28.224Z,94.46
2022-11-17T09:58:34.165Z,93.46
2022-11-17T10:00:39.896Z,92.73
2022-11-17T10:02:43.261Z,92.98
2022-11-17T10:04:48.387Z,92.74
2022-11-17T10:06:51.607Z,92.33
2022-11-17T10:09:01.146Z,93.11
2022-11-17T10:11:23.960Z,91.82
2022-11-17T10:13:32.129Z,91.50
2022-11-17T10:15:43.608Z,90.62
2022-11-17T10:17:46.380Z,90.50
2022-11-17T10:19:50.487Z,89.39
2022-11-17T10:21:56.294Z,89.08
2022-11-17T10:24:00.680Z,88.09
2022-11-17T10:26:09.306Z,87.69
2022-11-17T10:28:25.901Z,86.74
2022-11-17T10:30:28.596Z,85.80
2022-11-17T10:32:36.667Z,84.77
2022-11-17T10:34:41.597Z,84.75
2022-11-17T10:36:49.542Z,84.39
2022-11-17T10:38:54.675Z,83.64
2022-11-17T10:41:00.692Z,83.49
2022-11-17T10:43:19.410Z,81.70
2022-11-17T10:45:22.410Z,82.82
2022-11-17T10:47:28.387Z,82.14
2022-11-17T10:49:34.812Z,80.96
2022-11-17T10:51:37.591Z,81.35
2022-11-17T10:53:46.481Z,82.06
2022-11-17T10:55:55.847Z,81.89
2022-11-17T10:58:02.036Z,80.80
2022-11-17T11:00:05.393Z,81.64
2022-11-17T11:02:28.550Z,80.61
2022-11-17T11:04:34.130Z,80.68
2022-11-17T11:06:36.968Z,80.83
2022-11-17T11:08:55.094Z,80.78
2022-11-17T11:11:00.611Z,80.86
2022-11-17T11:13:13.676Z,80.74
2022-11-17T11:15:19.994Z,80.44
2022-11-17T11:17:22.810Z,79.43
2022-11-17T11:19:26.053Z,79.51
2022-11-17T11:21:46.264Z,79.70
2022-11-17T11:24:00.280Z,80.11
2022-11-17T11:26:14.681Z,78.23
2022-11-17T11:28:34.337Z,79.49
2022-11-17T11:30:43.249Z,79.60
2022-11-17T11:33:01.606Z,80.26
2022-11-17T11:35:34.825Z,79.70
2022-11-17T11:37:44.985Z,80.91
2022-11-17T11:39:57.421Z,80.89
2022-11-17T11:42:16.016Z,80.95
2022-11-17T11:44:41.774Z,81.09
2022-11-17T11:46:53.721Z,81.47
2022-11-17T11:49:03.923Z,80.96
2022-11-17T11:51:15.295Z,80.93
2022-11-17T11:53:24.725Z,81.37
2022-11-17T11:55:32.264Z,81.32
2022-11-17T11:57:37.470Z,81.39
2022-11-17T11:59:48.205Z,82.67
2022-11-17T12:02:03.100Z,81.45
2022-11-17T12:04:16.034Z,80.87
2022-11-17T12:06:41.557Z,80.41
2022-11-17T12:08:52.802Z,80.02
2022-11-17T12:11:21.787Z,77.94
2022-11-17T12:13:25.717Z,78.09
2022-11-17T12:15:36.681Z,77.92
2022-11-17T12:17:56.914Z,76.74
2022-11-17T12:20:07.481Z,76.13
2022-11-17T12:22:10.785Z,76.64
2022-11-17T12:24:19.075Z,75.67
2022-11-17T12:26:26.536Z,75.50
2022-11-17T12:28:32.836Z,74.81
2022-11-17T12:30:58.960Z,74.58
2022-11-17T12:33:03.976Z,74.77
2022-11-17T12:35:28.986Z,74.30
2022-11-17T12:37:31.716Z,73.68
2022-11-17T12:40:00.417Z,72.79
2022-11-17T12:42:08.695Z,72.96
2022-11-17T12:44:44.590Z,74.44
2022-11-17T12:46:48.173Z,74.37
2022-11-17T12:48:59.422Z,73.98
2022-11-17T12:51:08.533Z,72.62
2022-11-17T12:53:25.752Z,72.97
2022-11-17T12:55:43.611Z,71.04
2022-11-17T12:57:54.317Z,71.70
2022-11-17T13:00:10.731Z,72.00
2022-11-17T13:02:31.064Z,71.26
2022-11-17T13:04:43.846Z,71.98
2022-11-17T13:07:01.713Z,71.19
2022-11-17T13:09:07.323Z,70.07
2022-11-17T13:11:17.624Z,69.75
2022-11-17T13:13:23.992Z,71.05
2022-11-17T13:15:27.176Z,70.79
2022-11-17T13:17:32.803Z,70.82
2022-11-17T13:19:38.286Z,69.55
2022-11-17T13:21:40.997Z,69.45
2022-11-17T13:23:45.476Z,69.03
2022-11-17T13:25:48.208Z,69.68
2022-11-17T13:27:57.105Z,68.81
2022-11-17T13:30:24.237Z,69.56
2022-11-17T13:32:28.678Z,70.52
2022-11-17T13:34:31.746Z,71.24
2022-11-17T13:36:35.250Z,71.96
2022-11-17T13:38:37.998Z,72.74
2022-11-17T13:40:43.347Z,72.82
2022-11-17T13:42:46.690Z,73.23
2022-11-17T13:44:49.976Z,73.49
2022-11-17T13:46:55.308Z,73.74
2022-11-17T13:48:58.105Z,74.39
2022-11-17T13:51:32.876Z,74.32
2022-11-17T13:53:35.701Z,74.96
2022-11-17T13:55:44.211Z,74.94
2022-11-17T13:57:56.311Z,73.97
2022-11-17T14:00:01.147Z,73.51
2022-11-17T14:02:26.919Z,74.09
2022-11-17T14:04:29.965Z,74.78
2022-11-17T14:06:53.976Z,74.43
2022-11-17T14:09:05.392Z,74.17
2022-11-17T14:11:21.493Z,75.40
2022-11-17T14:13:30.509Z,75.26
2022-11-17T14:15:36.261Z,74.84
2022-11-17T14:17:40.342Z,75.61
2022-11-17T14:19:43.045Z,75.86
2022-11-17T14:21:59.349Z,75.61
2022-11-17T14:24:08.286Z,75.71
2022-11-17T14:26:22.626Z,76.57
2022-11-17T14:28:25.554Z,76.82
2022-11-17T14:30:28.585Z,76.73
2022-11-17T14:32:32.268Z,75.92
2022-11-17T14:34:36.334Z,76.01
2022-11-17T14:36:40.329Z,75.91
2022-11-17T14:38:44.664Z,76.24
2022-11-17T14:40:47.537Z,76.55
2022-11-17T14:42:50.214Z,76.77
2022-11-17T14:44:52.930Z,76.81
2022-11-17T14:46:55.624Z,76.71
2022-11-17T14:48:58.425Z,76.01
2022-11-17T14:51:02.476Z,76.99
2022-11-17T14:53:05.255Z,76.66
2022-11-17T14:55:08.842Z,76.34
2022-11-17T14:57:11.518Z,77.49
2022-11-17T14:59:14.657Z,77.44
2022-11-17T15:01:19.225Z,77.64
2022-11-17T15:03:21.992Z,77.67
2022-11-17T15:05:24.798Z,77.29
2022-11-17T15:07:29.531Z,77.89
2022-11-17T15:09:32.604Z,78.75
2022-11-17T15:11:39.381Z,78.31
2022-11-17T15:13:42.415Z,78.63
2022-11-17T15:15:45.517Z,78.03
2022-11-17T15:17:48.313Z,78.64
2022-11-17T15:19:51.181Z,79.23
2022-11-17T15:21:53.922Z,79.73
2022-11-17T15:23:58.008Z,78.90
2022-11-17T15:26:04.134Z,79.70
2022-11-17T15:28:06.853Z,79.88
2022-11-17T15:30:10.134Z,80.51
2022-11-17T15:32:12.919Z,80.32
2022-11-17T15:34:20.162Z,79.90
2022-11-17T15:36:23.899Z,80.90
2022-11-17T15:38:26.676Z,82.14
2022-11-17T15:40:30.836Z,82.12
2022-11-17T15:42:33.537Z,82.13
2022-11-17T15:44:36.253Z,82.61
2022-11-17T15:46:44.307Z,82.01
2022-11-17T15:48:52.376Z,82.25
2022-11-17T15:50:57.806Z,83.15
2022-11-17T15:53:04.967Z,83.10
2022-11-17T15:55:08.606Z,82.39
2022-11-17T15:57:12.814Z,83.20
2022-11-17T15:59:16.312Z,83.84
2022-11-17T16:01:28.545Z,84.42
2022-11-17T16:03:31.235Z,83.42
2022-11-17T16:05:33.925Z,83.74
2022-11-17T16:07:36.847Z,83.45
2022-11-17T16:09:40.102Z,83.59
2022-11-17T16:11:42.916Z,83.78
2022-11-17T16:13:47.277Z,83.77
2022-11-17T16:15:50.732Z,84.50
2022-11-17T16:17:53.473Z,84.28
2022-11-17T16:19:56.169Z,86.24
2022-11-17T16:21:58.936Z,87.26
2022-11-17T16:24:02.160Z,87.15
2022-11-17T16:26:05.191Z,85.96
2022-11-17T16:28:08.475Z,86.61
2022-11-17T16:30:14.784Z,86.87
2022-11-17T16:32:17.647Z,88.25
2022-11-17T16:34:21.883Z,87.23
2022-11-17T16:36:31.256Z,88.46
2022-11-17T16:38:39.618Z,88.36
2022-11-17T16:40:48.821Z,92.44
2022-11-17T16:42:51.520Z,92.79
2022-11-17T16:44:54.346Z,90.28
2022-11-17T16:46:58.517Z,89.89
2022-11-17T16:49:03.178Z,88.57
2022-11-17T16:51:08.623Z,88.85
2022-11-17T16:53:11.364Z,88.86
2022-11-17T16:55:14.175Z,87.83
2022-11-17T16:57:16.985Z,87.21
2022-11-17T16:59:19.928Z,87.07
2022-11-17T17:01:25.989Z,86.93
2022-11-17T17:03:30.159Z,86.45
2022-11-17T17:05:34.545Z,86.02
2022-11-17T17:07:37.315Z,86.11
2022-11-17T17:09:40.066Z,84.70
2022-11-17T17:11:43.166Z,84.97
2022-11-17T17:13:45.893Z,84.19
2022-11-17T17:15:48.636Z,83.75
2022-11-17T17:17:51.383Z,82.65
2022-11-17T17:19:55.657Z,83.75
2022-11-17T17:21:58.427Z,83.85
2022-11-17T17:24:01.549Z,84.49
2022-11-17T17:26:06.159Z,85.06
2022-11-17T17:28:08.913Z,85.91
2022-11-17T17:30:12.822Z,85.18
2022-11-17T17:32:15.568Z,85.71
2022-11-17T17:34:18.369Z,85.36
2022-11-17T17:36:24.445Z,85.58
2022-11-17T17:38:28.567Z,86.34
2022-11-17T17:40:31.618Z,86.17
2022-11-17T17:42:34.322Z,85.77
2022-11-17T17:44:37.037Z,86.03
2022-11-17T17:46:39.826Z,86.14
2022-11-17T17:48:44.092Z,85.70
2022-11-17T17:50:46.850Z,86.26
2022-11-17T17:52:50.974Z,86.25
2022-11-17T17:54:53.681Z,86.11
2022-11-17T17:56:57.672Z,85.77
2022-11-17T17:59:00.637Z,85.42
2022-11-17T18:01:09.799Z,84.71
2022-11-17T18:03:12.561Z,85.05
2022-11-17T18:05:16.149Z,85.13
2022-11-17T18:07:18.953Z,84.73
2022-11-17T18:09:23.119Z,85.33
2022-11-17T18:11:26.637Z,85.01
2022-11-17T18:13:31.691Z,84.94
2022-11-17T18:15:34.432Z,84.98
2022-11-17T18:17:37.221Z,84.18
2022-11-17T18:19:39.957Z,84.61
2022-11-17T18:21:42.719Z,84.82
2022-11-17T18:23:45.693Z,84.30
2022-11-17T18:25:49.745Z,84.37
2022-11-17T18:27:52.606Z,83.93
2022-11-17T18:29:55.325Z,83.86
2022-11-17T18:31:58.004Z,83.96
2022-11-17T18:34:02.609Z,84.02
2022-11-17T18:36:06.930Z,83.97
2022-11-17T18:38:09.614Z,83.94
2022-11-17T18:40:13.274Z,84.16
2022-11-17T18:42:17.370Z,82.83
2022-11-17T18:44:20.425Z,82.68
2022-11-17T18:46:24.335Z,83.16
2022-11-17T18:48:27.148Z,82.48
2022-11-17T18:50:29.881Z,81.94
2022-11-17T18:52:32.807Z,82.19
2022-11-17T18:54:35.510Z,81.79
2022-11-17T18:56:38.828Z,81.83
2022-11-17T18:58:44.193Z,82.30
2022-11-17T19:00:46.936Z,82.57
2022-11-17T19:02:49.754Z,82.84
2022-11-17T19:04:52.444Z,82.27
2022-11-17T19:06:55.248Z,82.78
2022-11-17T19:08:59.579Z,83.33
2022-11-17T19:11:06.087Z,83.19
2022-11-17T19:13:09.135Z,83.89
2022-11-17T19:15:13.302Z,83.52
2022-11-17T19:17:16.081Z,84.17
2022-11-17T19:19:19.192Z,85.89
2022-11-17T19:21:25.714Z,86.91
2022-11-17T19:23:28.632Z,87.79
2022-11-17T19:25:31.480Z,88.60
2022-11-17T19:27:34.372Z,89.23
2022-11-17T19:29:38.764Z,89.89
2022-11-17T19:31:42.856Z,88.54
2022-11-17T19:33:46.659Z,87.36
2022-11-17T19:35:49.384Z,88.06
2022-11-17T19:37:52.320Z,88.29
2022-11-17T19:39:55.009Z,89.72
2022-11-17T19:41:57.743Z,87.07
2022-11-17T19:44:03.895Z,86.64
2022-11-17T19:46:08.960Z,87.46
2022-11-17T19:48:13.083Z,86.83
2022-11-17T19:50:15.814Z,89.33
2022-11-17T19:52:18.654Z,92.15
2022-11-17T19:54:21.633Z,95.26
2022-11-17T19:56:25.815Z,96.45
2022-11-17T19:58:28.538Z,99.08
2022-11-17T20:00:31.286Z,97.73
2022-11-17T20:02:34.043Z,98.42
2022-11-17T20:04:38.200Z,100.00
2022-11-17T20:06:41.186Z,100.00
2022-11-17T20:08:44.497Z,100.00
2022-11-17T20:10:47.230Z,100.00
2022-11-17T20:12:49.990Z,100.00
2022-11-17T20:14:52.704Z,100.00
2022-11-17T20:16:55.391Z,100.00
2022-11-17T20:19:00.124Z,100.00
2022-11-17T20:21:06.712Z,100.00
2022-11-17T20:23:10.029Z,100.00
2022-11-17T20:25:12.886Z,100.00
2022-11-17T20:27:15.577Z,100.00
2022-11-17T20:29:18.678Z,100.00
2022-11-17T20:31:24.270Z,100.00
2022-11-17T20:33:27.049Z,100.00
2022-11-17T20:35:29.776Z,100.00
2022-11-17T20:37:34.027Z,100.00
2022-11-17T20:39:36.751Z,100.00
2022-11-17T20:41:39.512Z,100.00
2022-11-17T20:43:42.238Z,100.00
2022-11-17T20:45:44.977Z,100.00
2022-11-17T20:47:47.726Z,100.00
2022-11-17T20:49:50.682Z,100.00
2022-11-17T20:51:53.445Z,100.00
2022-11-17T20:53:57.598Z,100.00
2022-11-17T20:56:02.298Z,100.00
2022-11-17T20:58:05.083Z,100.00
2022-11-17T21:00:09.202Z,100.00
2022-11-17T21:02:12.159Z,100.00
2022-11-17T21:04:15.180Z,100.00
2022-11-17T21:06:19.589Z,100.00
2022-11-17T21:08:22.426Z,100.00
2022-11-17T21:10:26.564Z,100.00
2022-11-17T21:12:29.678Z,100.00
2022-11-17T21:14:32.437Z,100.00
2022-11-17T21:16:37.560Z,100.00
2022-11-17T21:18:46.875Z,100.00
2022-11-17T21:20:49.575Z,100.00
2022-11-17T21:22:52.336Z,100.00
2022-11-17T21:24:55.035Z,100.00
2022-11-17T21:26:59.146Z,100.00
2022-11-17T21:29:06.441Z,100.00
2022-11-17T21:31:12.582Z,100.00
2022-11-17T21:33:15.385Z,100.00
2022-11-17T21:35:18.337Z,100.00
2022-11-17T21:37:21.121Z,100.00
2022-11-17T21:39:24.592Z,100.00
2022-11-17T21:41:28.930Z,100.00
2022-11-17T21:43:33.156Z,100.00
2022-11-17T21:45:35.881Z,100.00
2022-11-17T21:47:38.504Z,100.00
2022-11-17T21:49:41.265Z,100.00
2022-11-17T21:51:45.391Z,100.00
2022-11-17T21:53:48.765Z,100.00
2022-11-17T21:55:51.432Z,100.00
2022-11-17T21:57:54.197Z,100.00
2022-11-17T21:59:58.331Z,100.00
2022-11-17T22:02:01.004Z,100.00
2022-11-17T22:04:05.016Z,100.00
2022-11-17T22:06:09.898Z,100.00
2022-11-17T22:08:12.631Z,100.00
2022-11-17T22:10:15.323Z,100.00
2022-11-17T22:12:18.100Z,100.00
2022-11-17T22:14:21.492Z,100.00
2022-11-17T22:16:25.624Z,100.00
2022-11-17T22:18:28.357Z,100.00
2022-11-17T22:20:31.083Z,100.00
2022-11-17T22:22:33.732Z,100.00
2022-11-17T22:24:39.489Z,100.00
2022-11-17T22:26:44.307Z,100.00
2022-11-17T22:28:51.015Z,100.00
2022-11-17T22:30:54.004Z,100.00
2022-11-17T22:32:58.131Z,100.00
2022-11-17T22:35:01.686Z,100.00
2022-11-17T22:37:04.398Z,100.00
2022-11-17T22:39:07.683Z,100.00
2022-11-17T22:41:12.837Z,100.00
2022-11-17T22:43:15.811Z,100.00
2022-11-17T22:45:18.592Z,100.00
2022-11-17T22:47:21.305Z,100.00
2022-11-17T22:49:25.335Z,100.00
2022-11-17T22:51:45.479Z,100.00
2022-11-17T22:53:48.148Z,100.00
2022-11-17T22:55:50.899Z,100.00
2022-11-17T22:57:53.615Z,100.00
2022-11-17T22:59:56.516Z,100.00
2022-11-17T23:01:59.232Z,100.00
2022-11-17T23:04:01.948Z,100.00
2022-11-17T23:06:06.697Z,100.00
2022-11-17T23:08:10.068Z,100.00
2022-11-17T23:10:13.451Z,100.00
2022-11-17T23:12:16.208Z,100.00
2022-11-17T23:14:18.938Z,100.00
2022-11-17T23:16:22.192Z,100.00
2022-11-17T23:18:25.913Z,100.00
2022-11-17T23:20:28.603Z,100.00
2022-11-17T23:22:33.999Z,100.00
2022-11-17T23:24:36.737Z,100.00
2022-11-17T23:26:39.556Z,100.00
2022-11-17T23:28:43.598Z,100.00
2022-11-17T23:30:46.349Z,100.00
2022-11-17T23:32:49.161Z,100.00
2022-11-17T23:34:51.920Z,100.00
2022-11-17T23:36:57.341Z,100.00
2022-11-17T23:39:05.333Z,100.00
2022-11-17T23:41:10.176Z,100.00
2022-11-17T23:43:12.952Z,100.00
2022-11-17T23:45:15.848Z,100.00
2022-11-17T23:47:18.583Z,100.00
2022-11-17T23:49:21.308Z,100.00
2022-11-17T23:51:25.917Z,100.00
2022-11-17T23:53:28.652Z,100.00
2022-11-17T23:55:32.845Z,100.00
2022-11-17T23:57:35.588Z,100.00
2022-11-17T23:59:38.323Z,100.00
